Time;durP1;ratioP1;P1;durP2;ratioP2;P2;SDS_P1;SDS_P2;PMS_P1;PMS_P2;Temp;Humidity;BMP_temperature;BMP_pressure;BME280_temperature;BME280_humidity;BME280_pressure;Samples;Min_cycle;Max_cycle;Signal;HPM_P1;HPM_P2
2021/03/17 00:02:16;;;;;;;9.45;5.75;;;5.60;99.90;;;;;;5090089;28;20417;-48
2021/03/17 00:04:42;;;;;;;10.00;5.60;;;4.50;99.90;;;;;;5088753;28;20447;-48
2021/03/17 00:07:08;;;;;;;9.90;5.05;;;4.50;99.90;;;;;;5091276;28;20384;-48
2021/03/17 00:09:33;;;;;;;9.97;5.57;;;4.40;99.90;;;;;;5086400;28;20479;-48
2021/03/17 00:11:59;;;;;;;9.73;5.17;;;4.50;99.90;;;;;;5081516;28;20738;-48
2021/03/17 00:14:25;;;;;;;9.18;5.55;;;5.30;99.90;;;;;;5089412;28;20455;-48
2021/03/17 00:16:51;;;;;;;10.20;5.00;;;5.80;99.90;;;;;;5089661;28;20433;-48
2021/03/17 00:19:16;;;;;;;9.97;5.30;;;6.40;99.90;;;;;;5091097;28;20381;-49
2021/03/17 00:21:42;;;;;;;9.77;5.10;;;4.40;99.90;;;;;;5088848;28;20390;-49
2021/03/17 00:24:08;;;;;;;11.90;5.73;;;4.50;99.90;;;;;;5090490;28;20860;-48
2021/03/17 00:26:34;;;;;;;8.65;5.20;;;4.30;99.90;;;;;;5089468;28;20827;-50
2021/03/17 00:28:59;;;;;;;8.77;5.60;;;5.90;99.90;;;;;;5089459;28;20488;-48
2021/03/17 00:31:25;;;;;;;8.50;4.80;;;5.20;99.90;;;;;;5071193;28;20397;-54
2021/03/17 00:33:51;;;;;;;9.87;5.70;;;4.10;99.90;;;;;;5085537;28;20398;-48
2021/03/17 00:36:17;;;;;;;9.70;5.10;;;4.10;99.90;;;;;;5090138;28;20754;-48
2021/03/17 00:38:43;;;;;;;9.75;5.85;;;5.00;99.90;;;;;;5081503;28;20459;-48
2021/03/17 00:41:10;;;;;;;10.53;5.83;;;4.20;99.90;;;;;;5078977;28;20471;-48
2021/03/17 00:43:36;;;;;;;8.95;5.50;;;4.20;99.90;;;;;;5082911;28;20394;-48
2021/03/17 00:46:02;;;;;;;11.65;5.68;;;4.20;99.90;;;;;;5086305;28;20409;-48
2021/03/17 00:48:28;;;;;;;11.15;5.35;;;4.20;99.90;;;;;;5079446;28;20394;-49
2021/03/17 00:50:53;;;;;;;9.90;5.30;;;4.20;99.90;;;;;;5090598;28;20462;-48
2021/03/17 00:53:19;;;;;;;8.83;5.30;;;6.20;99.90;;;;;;5089362;28;20402;-48
2021/03/17 00:55:45;;;;;;;9.25;5.18;;;5.10;99.90;;;;;;5087374;28;20414;-48
2021/03/17 00:58:10;;;;;;;10.73;5.82;;;5.40;99.90;;;;;;5088598;28;20879;-48
2021/03/17 01:00:36;;;;;;;8.97;5.00;;;5.20;99.90;;;;;;5088881;28;20447;-48
2021/03/17 01:03:02;;;;;;;10.23;5.30;;;4.30;99.90;;;;;;5066781;28;20397;-48
2021/03/17 01:05:31;;;;;;;8.67;4.70;;;4.30;99.90;;;;;;5085194;28;20422;-49
2021/03/17 01:07:58;;;;;;;9.38;5.30;;;4.30;99.90;;;;;;5051909;28;20540;-48
2021/03/17 01:10:37;;;;;;;9.07;5.22;;;4.30;99.90;;;;;;5088275;28;20849;-54
2021/03/17 01:13:03;;;;;;;9.88;5.20;;;4.30;99.90;;;;;;5067700;28;20693;-48
2021/03/17 01:15:29;;;;;;;9.45;5.10;;;4.30;99.90;;;;;;5088623;28;20424;-48
2021/03/17 01:17:55;;;;;;;10.15;5.30;;;4.20;99.90;;;;;;5074665;28;20459;-48
2021/03/17 01:20:27;;;;;;;8.80;5.22;;;4.20;99.90;;;;;;5084698;28;20477;-48
2021/03/17 01:22:53;;;;;;;10.90;5.97;;;4.10;99.90;;;;;;5089527;28;20381;-48
2021/03/17 01:25:37;;;;;;;9.45;5.00;;;4.20;99.90;;;;;;5088109;28;20449;-48
2021/03/17 01:28:06;;;;;;;9.63;5.80;;;4.30;99.90;;;;;;5087733;28;20382;-51
2021/03/17 01:30:35;;;;;;;11.38;6.50;;;4.20;99.90;;;;;;5087777;28;20402;-48
2021/03/17 01:33:01;;;;;;;11.20;6.25;;;4.10;99.90;;;;;;5089775;28;20382;-48
2021/03/17 01:35:27;;;;;;;13.50;6.35;;;4.10;99.90;;;;;;5069520;28;20407;-49
2021/03/17 01:37:53;;;;;;;10.43;5.80;;;6.40;99.90;;;;;;5068354;28;20898;-48
2021/03/17 01:40:23;;;;;;;10.93;6.38;;;4.20;99.90;;;;;;5090027;28;20487;-50
2021/03/17 01:42:48;;;;;;;10.27;5.70;;;4.20;99.90;;;;;;5064639;28;20394;-49
2021/03/17 01:45:15;;;;;;;11.20;5.70;;;4.20;99.90;;;;;;5089851;28;20484;-52
2021/03/17 01:47:43;;;;;;;10.70;5.70;;;4.30;99.90;;;;;;5089821;28;20379;-49
2021/03/17 01:50:36;;;;;;;10.77;6.10;;;6.40;99.90;;;;;;5085366;28;20409;-49
2021/03/17 01:53:08;;;;;;;10.90;5.90;;;4.40;99.90;;;;;;5087108;28;20400;-50
2021/03/17 01:55:36;;;;;;;9.95;5.60;;;4.30;99.90;;;;;;5057133;28;20424;-49
2021/03/17 01:58:02;;;;;;;11.13;6.20;;;4.40;99.90;;;;;;5082219;28;20388;-48
2021/03/17 02:00:28;;;;;;;11.27;6.18;;;4.40;99.90;;;;;;5082693;28;20390;-49
2021/03/17 02:02:55;;;;;;;9.95;5.20;;;4.40;99.90;;;;;;5088640;28;20370;-49
2021/03/17 02:05:24;;;;;;;9.77;5.55;;;4.40;99.90;;;;;;5088809;28;20500;-52
2021/03/17 02:07:53;;;;;;;9.60;5.20;;;4.30;99.90;;;;;;5070717;28;20933;-49
2021/03/17 02:10:19;;;;;;;9.32;5.10;;;4.40;99.90;;;;;;5083113;28;20486;-49
2021/03/17 02:13:22;;;;;;;9.38;4.60;;;4.50;99.90;;;;;;5088548;28;20878;-47
2021/03/17 02:16:10;;;;;;;7.80;4.60;;;4.40;99.90;;;;;;5073277;28;20684;-50
2021/03/17 02:18:50;;;;;;;8.52;4.75;;;4.30;99.90;;;;;;5084596;28;20425;-50
2021/03/17 02:21:17;;;;;;;7.47;3.80;;;4.40;99.90;;;;;;5087996;28;20393;-48
2021/03/17 02:24:01;;;;;;;8.17;4.30;;;4.40;99.90;;;;;;5083855;28;20754;-47
2021/03/17 02:26:43;;;;;;;9.20;4.97;;;4.30;99.90;;;;;;5081568;28;20608;-53
2021/03/17 02:29:24;;;;;;;8.50;4.85;;;4.30;99.90;;;;;;5088556;28;20398;-52
2021/03/17 02:31:54;;;;;;;8.80;5.18;;;4.30;99.90;;;;;;5086233;28;20366;-49
2021/03/17 02:34:23;;;;;;;9.85;5.38;;;4.20;99.90;;;;;;5083939;28;20404;-49
2021/03/17 02:37:02;;;;;;;9.40;5.23;;;4.30;99.90;;;;;;5087607;28;20398;-48
2021/03/17 02:39:41;;;;;;;8.65;5.10;;;6.50;99.90;;;;;;5058169;28;20420;-48
2021/03/17 02:42:20;;;;;;;9.87;5.17;;;4.40;99.90;;;;;;5084710;28;20476;-48
2021/03/17 02:44:52;;;;;;;8.40;5.30;;;4.30;99.90;;;;;;5079152;28;20942;-47
2021/03/17 02:47:18;;;;;;;8.27;4.80;;;5.70;99.90;;;;;;5080188;28;20374;-47
2021/03/17 02:49:47;;;;;;;8.85;5.20;;;4.10;99.90;;;;;;5086840;28;20393;-47
2021/03/17 02:52:14;;;;;;;8.68;4.80;;;4.10;99.90;;;;;;5088536;28;20471;-47
2021/03/17 02:54:43;;;;;;;9.50;5.20;;;4.10;99.90;;;;;;5089179;28;20396;-48
2021/03/17 02:57:36;;;;;;;9.57;4.90;;;4.10;99.90;;;;;;5093003;28;20389;-47
2021/03/17 03:00:08;;;;;;;9.48;4.90;;;4.10;99.90;;;;;;5087012;28;20406;-48
2021/03/17 03:02:34;;;;;;;7.90;4.90;;;4.00;99.90;;;;;;5073379;28;20393;-48
2021/03/17 03:05:01;;;;;;;8.90;5.00;;;4.10;99.90;;;;;;5090455;28;20441;-48
2021/03/17 03:07:30;;;;;;;9.05;5.20;;;5.30;99.90;;;;;;5092224;28;20396;-53
2021/03/17 03:09:56;;;;;;;8.05;4.28;;;4.60;99.90;;;;;;5091361;28;20394;-47
2021/03/17 03:12:23;;;;;;;7.88;4.88;;;4.20;99.90;;;;;;5090186;28;20469;-48
2021/03/17 03:14:52;;;;;;;7.20;4.15;;;4.30;99.90;;;;;;5089952;28;20398;-49
2021/03/17 03:17:19;;;;;;;8.27;5.18;;;4.30;99.90;;;;;;5088912;28;20378;-48
2021/03/17 03:19:51;;;;;;;8.80;4.43;;;4.10;99.90;;;;;;5090124;28;20497;-48
2021/03/17 03:22:19;;;;;;;9.60;4.93;;;4.10;99.90;;;;;;5085219;28;20426;-48
2021/03/17 03:24:46;;;;;;;8.25;4.43;;;4.10;99.90;;;;;;5088781;28;20465;-49
2021/03/17 03:27:13;;;;;;;9.20;4.97;;;4.00;99.90;;;;;;5088911;28;20494;-48
2021/03/17 03:29:39;;;;;;;9.18;4.82;;;4.00;99.90;;;;;;5068831;28;20433;-48
2021/03/17 03:32:06;;;;;;;8.13;4.53;;;5.20;99.90;;;;;;5090769;28;20442;-47
2021/03/17 03:34:32;;;;;;;7.90;4.72;;;4.00;99.90;;;;;;5080986;28;20480;-50
2021/03/17 03:36:58;;;;;;;9.60;4.60;;;3.90;99.90;;;;;;5090330;28;20374;-47
2021/03/17 03:39:23;;;;;;;8.45;4.78;;;3.90;99.90;;;;;;5083437;28;20420;-47
2021/03/17 03:41:49;;;;;;;8.30;4.70;;;3.90;99.90;;;;;;5091422;28;20715;-48
2021/03/17 03:44:15;;;;;;;8.83;5.30;;;3.80;99.90;;;;;;5090454;28;20398;-48
2021/03/17 03:46:41;;;;;;;9.48;5.00;;;3.80;99.90;;;;;;5084595;28;20828;-48
2021/03/17 03:49:07;;;;;;;8.10;4.60;;;3.80;99.90;;;;;;5071321;28;20835;-49
2021/03/17 03:51:34;;;;;;;11.25;5.65;;;3.70;99.90;;;;;;5090032;28;20397;-48
2021/03/17 03:54:00;;;;;;;8.75;5.30;;;3.70;99.90;;;;;;5090460;28;20398;-47
2021/03/17 03:56:34;;;;;;;9.87;5.67;;;3.80;99.90;;;;;;5067928;28;20764;-53
2021/03/17 03:59:07;;;;;;;9.50;5.30;;;3.70;99.90;;;;;;5090210;28;20398;-49
2021/03/17 04:01:39;;;;;;;9.60;4.72;;;3.90;99.90;;;;;;5090947;28;20430;-48
2021/03/17 04:04:09;;;;;;;8.90;5.60;;;3.90;99.90;;;;;;5084848;28;20392;-47
2021/03/17 04:06:35;;;;;;;8.32;4.90;;;4.00;99.90;;;;;;5061841;28;20798;-48
2021/03/17 04:09:04;;;;;;;7.97;4.88;;;4.10;99.90;;;;;;5072800;28;20732;-49
2021/03/17 04:11:30;;;;;;;8.88;5.55;;;4.10;99.90;;;;;;5087434;28;20413;-48
2021/03/17 04:14:01;;;;;;;11.38;5.72;;;4.20;99.90;;;;;;5089792;28;20767;-48
2021/03/17 04:16:29;;;;;;;9.20;5.65;;;4.20;99.90;;;;;;5083540;28;20389;-53
2021/03/17 04:18:56;;;;;;;9.88;5.75;;;4.10;99.90;;;;;;5078387;28;20861;-49
2021/03/17 04:21:31;;;;;;;10.55;5.75;;;4.10;99.90;;;;;;5082442;28;20538;-47
2021/03/17 04:24:01;;;;;;;10.80;5.90;;;2.30;99.90;;;;;;5079965;28;20394;-48
2021/03/17 04:26:29;;;;;;;10.40;6.10;;;6.30;99.90;;;;;;5077298;28;20425;-53
2021/03/17 04:28:56;;;;;;;10.57;5.75;;;3.90;99.90;;;;;;5079780;28;20551;-49
2021/03/17 04:31:23;;;;;;;11.90;6.18;;;3.90;99.90;;;;;;5078010;28;20531;-47
2021/03/17 04:33:49;;;;;;;10.93;6.15;;;3.80;99.90;;;;;;5088645;28;20396;-48
2021/03/17 04:36:15;;;;;;;11.38;6.38;;;3.80;99.90;;;;;;5090688;28;20378;-50
2021/03/17 04:38:42;;;;;;;11.93;6.78;;;3.90;99.90;;;;;;5079418;28;20394;-47
2021/03/17 04:41:09;;;;;;;13.20;6.70;;;4.00;99.90;;;;;;5089810;28;20405;-47
2021/03/17 04:43:40;;;;;;;12.25;7.32;;;4.00;99.90;;;;;;5088878;28;20916;-47
2021/03/17 04:46:07;;;;;;;12.82;7.03;;;4.00;99.90;;;;;;5087764;28;20406;-48
2021/03/17 04:48:36;;;;;;;12.55;7.22;;;5.50;99.90;;;;;;5074003;28;20448;-51
2021/03/17 04:51:03;;;;;;;11.38;7.32;;;4.10;99.90;;;;;;5090325;28;20381;-49
2021/03/17 04:53:29;;;;;;;12.13;7.00;;;3.90;99.90;;;;;;5088977;28;20405;-53
2021/03/17 04:55:54;;;;;;;14.33;8.30;;;4.00;99.90;;;;;;5087654;28;20386;-48
2021/03/17 04:58:23;;;;;;;13.88;8.43;;;3.90;99.90;;;;;;5072668;28;20378;-47
2021/03/17 05:00:50;;;;;;;14.73;8.10;;;3.90;99.90;;;;;;5088384;28;20429;-48
2021/03/17 05:03:20;;;;;;;14.13;8.48;;;3.90;99.90;;;;;;5090415;28;20374;-48
2021/03/17 05:05:50;;;;;;;14.75;8.20;;;6.20;99.90;;;;;;5087524;28;20418;-48
2021/03/17 05:08:17;;;;;;;14.75;8.57;;;3.90;99.90;;;;;;5089071;28;20714;-48
2021/03/17 05:10:44;;;;;;;17.57;9.20;;;3.90;99.90;;;;;;5068661;28;20465;-48
2021/03/17 05:13:11;;;;;;;14.80;8.52;;;3.90;99.90;;;;;;5080029;28;20863;-48
2021/03/17 05:15:39;;;;;;;16.73;8.60;;;3.90;99.90;;;;;;5088093;28;20378;-48
2021/03/17 05:18:06;;;;;;;14.48;8.27;;;3.80;99.90;;;;;;5087519;28;20927;-48
2021/03/17 05:20:33;;;;;;;16.05;8.75;;;3.90;99.90;;;;;;5079150;28;20382;-53
2021/03/17 05:23:00;;;;;;;14.30;8.35;;;3.90;99.90;;;;;;5086227;28;20401;-48
2021/03/17 05:25:27;;;;;;;14.33;8.23;;;3.90;99.90;;;;;;5080374;28;20458;-48
2021/03/17 05:27:55;;;;;;;16.77;9.00;;;4.00;99.90;;;;;;5085898;28;20409;-50
2021/03/17 05:30:24;;;;;;;17.63;9.55;;;4.60;99.90;;;;;;5082716;28;20414;-48
2021/03/17 05:32:52;;;;;;;17.83;9.65;;;4.00;99.90;;;;;;5076829;28;20478;-49
2021/03/17 05:35:18;;;;;;;16.80;9.43;;;6.40;99.90;;;;;;5085633;28;20487;-48
2021/03/17 05:37:45;;;;;;;17.15;9.52;;;4.10;99.90;;;;;;5087416;28;20544;-48
2021/03/17 05:40:13;;;;;;;15.43;8.95;;;4.10;99.90;;;;;;5089643;28;20385;-47
2021/03/17 05:42:40;;;;;;;16.95;9.30;;;4.20;99.90;;;;;;5079367;28;20390;-48
2021/03/17 05:45:20;;;;;;;16.98;9.50;;;4.20;99.90;;;;;;5089650;28;20412;-48
2021/03/17 05:47:48;;;;;;;17.88;8.80;;;4.20;99.90;;;;;;5085061;28;20406;-48
2021/03/17 05:50:16;;;;;;;17.83;10.07;;;4.10;99.90;;;;;;5075600;28;20480;-48
2021/03/17 05:52:42;;;;;;;18.88;10.30;;;4.10;99.90;;;;;;5087610;28;20385;-48
2021/03/17 05:55:09;;;;;;;19.73;10.40;;;4.20;99.90;;;;;;5077678;28;20459;-47
2021/03/17 05:57:36;;;;;;;18.80;10.35;;;4.10;99.90;;;;;;5084678;28;20380;-48
2021/03/17 06:00:05;;;;;;;20.70;10.50;;;4.00;99.90;;;;;;5085079;28;20440;-48
2021/03/17 06:02:32;;;;;;;20.48;11.13;;;4.00;99.90;;;;;;5080133;28;20413;-53
2021/03/17 06:04:59;;;;;;;21.13;10.90;;;4.20;99.90;;;;;;5086901;28;20883;-48
2021/03/17 06:07:27;;;;;;;18.63;10.98;;;5.20;99.90;;;;;;5089685;28;20382;-48
2021/03/17 06:09:55;;;;;;;19.23;11.48;;;6.40;99.90;;;;;;5081001;28;20416;-48
2021/03/17 06:12:22;;;;;;;17.80;10.07;;;4.10;99.90;;;;;;5080957;28;20402;-47
2021/03/17 06:14:50;;;;;;;19.07;10.97;;;3.90;99.90;;;;;;5080336;28;20395;-48
2021/03/17 06:17:22;;;;;;;20.45;11.13;;;4.00;99.90;;;;;;5086337;28;20402;-48
2021/03/17 06:19:59;;;;;;;20.90;10.73;;;4.00;99.90;;;;;;5088440;28;20908;-48
2021/03/17 06:22:25;;;;;;;21.95;11.45;;;4.10;99.90;;;;;;5088463;28;20887;-48
2021/03/17 06:24:52;;;;;;;20.05;10.85;;;5.50;99.90;;;;;;5083374;28;20378;-48
2021/03/17 06:27:18;;;;;;;20.17;10.93;;;4.20;99.90;;;;;;5085185;28;20439;-48
2021/03/17 06:29:43;;;;;;;18.90;10.20;;;4.20;99.90;;;;;;5080795;28;20379;-49
2021/03/17 06:32:09;;;;;;;18.67;10.33;;;5.90;99.90;;;;;;5081664;28;20867;-47
2021/03/17 06:34:48;;;;;;;18.53;10.90;;;4.20;99.90;;;;;;5083977;28;20392;-47
2021/03/17 06:37:14;;;;;;;18.30;10.53;;;4.30;99.90;;;;;;5075173;28;20767;-49
2021/03/17 06:39:39;;;;;;;18.53;9.57;;;4.50;99.90;;;;;;5091305;28;20403;-48
2021/03/17 06:42:06;;;;;;;17.63;10.20;;;6.50;99.90;;;;;;5091992;28;20397;-50
2021/03/17 06:44:31;;;;;;;17.00;9.60;;;4.40;99.90;;;;;;5090968;28;21130;-51
2021/03/17 06:47:21;;;;;;;20.42;9.95;;;4.20;99.90;;;;;;5091461;28;20449;-47
2021/03/17 06:49:52;;;;;;;20.45;10.95;;;4.40;99.90;;;;;;5079458;28;20394;-46
2021/03/17 06:52:38;;;;;;;20.17;11.68;;;6.70;99.90;;;;;;5092101;28;20406;-48
2021/03/17 06:55:08;;;;;;;17.08;10.10;;;4.60;99.90;;;;;;5080432;28;20406;-49
2021/03/17 06:57:35;;;;;;;19.63;11.10;;;4.60;99.90;;;;;;5083417;28;20603;-54
2021/03/17 07:00:24;;;;;;;19.95;11.40;;;4.80;99.90;;;;;;5088481;28;20412;-48
2021/03/17 07:02:53;;;;;;;18.23;10.67;;;4.70;99.90;;;;;;5089461;28;20461;-48
2021/03/17 07:05:19;;;;;;;19.75;11.32;;;4.80;99.90;;;;;;5072001;28;20419;-48
2021/03/17 07:07:54;;;;;;;16.40;9.07;;;5.00;99.90;;;;;;5085527;28;20500;-48
2021/03/17 07:10:35;;;;;;;15.43;8.48;;;5.10;99.90;;;;;;5092070;28;20378;-49
2021/03/17 07:13:02;;;;;;;14.90;7.85;;;5.10;99.90;;;;;;5076705;28;20383;-48
2021/03/17 07:15:28;;;;;;;13.63;7.53;;;5.00;99.90;;;;;;5072006;28;20398;-48
2021/03/17 07:18:15;;;;;;;15.52;7.43;;;5.70;99.90;;;;;;5071408;28;20372;-48
2021/03/17 07:20:58;;;;;;;13.88;6.40;;;6.30;99.90;;;;;;5070698;28;20390;-48
2021/03/17 07:23:30;;;;;;;13.15;7.00;;;5.00;99.90;;;;;;5072189;28;20384;-48
2021/03/17 07:26:14;;;;;;;13.07;7.30;;;6.50;99.90;;;;;;5071117;28;20426;-48
2021/03/17 07:28:59;;;;;;;12.43;7.20;;;5.20;99.90;;;;;;5074842;28;20386;-49
2021/03/17 07:31:28;;;;;;;12.30;6.43;;;5.20;99.90;;;;;;5092162;28;20454;-48
2021/03/17 07:34:06;;;;;;;14.23;6.97;;;5.20;99.90;;;;;;5091326;28;20366;-48
2021/03/17 07:36:43;;;;;;;13.63;7.13;;;5.10;99.90;;;;;;5091536;28;20457;-54
2021/03/17 07:39:11;;;;;;;12.68;7.22;;;5.10;99.90;;;;;;5092046;28;20455;-49
2021/03/17 07:41:38;;;;;;;13.50;7.20;;;5.40;99.90;;;;;;5091281;28;20476;-49
2021/03/17 07:44:07;;;;;;;12.50;7.13;;;5.20;99.90;;;;;;5091950;28;20413;-49
2021/03/17 07:46:34;;;;;;;16.92;8.50;;;5.20;99.90;;;;;;5073245;28;20422;-53
2021/03/17 07:49:01;;;;;;;15.20;8.10;;;5.80;99.90;;;;;;5091874;28;20377;-48
2021/03/17 07:51:28;;;;;;;15.10;8.10;;;5.10;99.90;;;;;;5091645;28;20385;-49
2021/03/17 07:53:55;;;;;;;15.53;8.67;;;5.20;99.90;;;;;;5072931;28;20622;-48
2021/03/17 07:56:23;;;;;;;16.65;8.20;;;7.20;99.90;;;;;;5091683;28;20735;-49
2021/03/17 07:58:50;;;;;;;15.00;8.10;;;7.40;99.90;;;;;;5090726;28;20378;-50
2021/03/17 08:01:17;;;;;;;16.40;8.73;;;5.60;99.90;;;;;;5091260;28;20446;-49
2021/03/17 08:03:45;;;;;;;16.10;8.93;;;5.80;99.90;;;;;;5079381;28;20434;-49
2021/03/17 08:06:12;;;;;;;14.85;8.38;;;6.50;99.90;;;;;;5071008;28;20415;-49
2021/03/17 08:08:40;;;;;;;13.10;7.28;;;8.10;99.90;;;;;;5070719;28;20424;-48
2021/03/17 08:11:05;;;;;;;12.25;7.07;;;8.50;99.90;;;;;;5071293;28;20392;-49
2021/03/17 08:13:31;;;;;;;14.07;7.17;;;9.30;99.90;;;;;;5071242;28;20386;-49
2021/03/17 08:15:57;;;;;;;11.88;6.90;;;10.20;99.90;;;;;;5070345;28;20391;-49
2021/03/17 08:18:39;;;;;;;13.52;8.10;;;11.20;99.90;;;;;;5071152;28;20383;-49
2021/03/17 08:21:04;;;;;;;14.85;8.52;;;11.30;99.90;;;;;;5071168;28;20418;-49
2021/03/17 08:23:38;;;;;;;13.83;8.00;;;10.90;99.90;;;;;;5071009;28;20379;-49
2021/03/17 08:26:04;;;;;;;14.38;8.45;;;10.70;99.90;;;;;;5070754;28;20412;-49
2021/03/17 08:28:30;;;;;;;13.85;8.27;;;10.50;99.90;;;;;;5070908;28;20396;-53
2021/03/17 08:30:57;;;;;;;19.30;9.07;;;12.10;99.90;;;;;;5069935;28;20383;-49
2021/03/17 08:33:33;;;;;;;13.13;8.35;;;12.70;99.90;;;;;;5070329;28;20380;-50
2021/03/17 08:36:01;;;;;;;17.60;8.93;;;11.70;99.90;;;;;;5070131;28;20463;-49
2021/03/17 08:38:44;;;;;;;15.55;8.30;;;10.70;99.90;;;;;;5070610;28;20908;-50
2021/03/17 08:41:10;;;;;;;13.80;7.60;;;11.30;99.90;;;;;;5070635;28;20372;-49
2021/03/17 08:43:35;;;;;;;13.48;7.80;;;10.30;99.90;;;;;;5070288;28;20911;-54
2021/03/17 08:46:13;;;;;;;14.70;8.60;;;9.20;99.90;;;;;;5070350;28;20839;-49
2021/03/17 08:49:04;;;;;;;12.57;7.40;;;11.10;99.90;;;;;;5069391;28;20427;-51
2021/03/17 08:51:45;;;;;;;15.68;8.95;;;10.90;99.90;;;;;;5070145;28;20451;-50
2021/03/17 08:54:47;;;;;;;12.95;8.25;;;11.30;99.90;;;;;;5070486;28;20388;-49
2021/03/17 08:57:15;;;;;;;14.32;7.80;;;11.30;99.90;;;;;;5038104;28;20876;-49
2021/03/17 08:59:45;;;;;;;12.85;7.13;;;10.20;99.90;;;;;;5069197;28;20964;-49
2021/03/17 09:02:26;;;;;;;15.70;8.45;;;9.20;99.90;;;;;;5070514;28;20472;-49
2021/03/17 09:04:53;;;;;;;15.82;8.18;;;9.80;99.90;;;;;;5069437;28;20395;-49
2021/03/17 09:07:21;;;;;;;12.75;7.88;;;10.10;99.90;;;;;;5070052;28;20758;-49
2021/03/17 09:09:49;;;;;;;14.50;8.00;;;11.10;99.90;;;;;;5085585;28;20471;-50
2021/03/17 09:12:36;;;;;;;13.25;7.75;;;11.00;99.90;;;;;;5088718;28;20390;-50
2021/03/17 09:15:14;;;;;;;14.27;7.82;;;10.30;99.90;;;;;;5065141;28;20390;-49
2021/03/17 09:17:54;;;;;;;14.00;7.70;;;9.30;99.90;;;;;;5088267;28;20962;-49
2021/03/17 09:20:28;;;;;;;12.75;7.60;;;8.60;99.90;;;;;;5071079;28;20429;-49
2021/03/17 09:23:08;;;;;;;14.70;7.68;;;8.70;99.90;;;;;;5088638;28;20374;-49
2021/03/17 09:25:36;;;;;;;12.88;6.45;;;10.60;99.90;;;;;;5089890;28;20425;-49
2021/03/17 09:28:03;;;;;;;11.93;6.40;;;10.20;99.90;;;;;;5088244;28;20421;-49
2021/03/17 09:30:44;;;;;;;11.90;6.45;;;11.20;99.90;;;;;;5090110;28;20819;-49
2021/03/17 09:33:15;;;;;;;10.18;5.68;;;11.00;99.90;;;;;;5088674;28;20813;-49
2021/03/17 09:35:45;;;;;;;9.85;5.47;;;10.80;99.90;;;;;;5089033;28;20378;-49
2021/03/17 09:38:14;;;;;;;9.80;5.22;;;10.20;99.90;;;;;;5089772;28;20378;-49
2021/03/17 09:41:05;;;;;;;9.68;5.63;;;9.70;99.90;;;;;;5087291;28;20409;-49
2021/03/17 09:43:42;;;;;;;8.98;5.00;;;9.50;99.90;;;;;;5089108;28;20385;-49
2021/03/17 09:46:33;;;;;;;10.87;6.40;;;9.40;99.90;;;;;;5088496;28;20421;-48
2021/03/17 09:49:11;;;;;;;12.82;6.45;;;9.00;99.90;;;;;;5075045;28;20398;-52
2021/03/17 09:51:39;;;;;;;9.85;5.10;;;8.80;99.90;;;;;;5089035;28;20370;-50
2021/03/17 09:54:08;;;;;;;11.90;5.40;;;10.20;99.90;;;;;;5089094;28;20412;-49
2021/03/17 09:56:41;;;;;;;10.68;5.97;;;11.30;99.90;;;;;;5089026;28;20401;-49
2021/03/17 09:59:31;;;;;;;10.77;5.50;;;12.60;99.90;;;;;;5088176;28;20489;-50
2021/03/17 10:02:04;;;;;;;11.13;5.40;;;13.40;99.90;;;;;;5089118;28;20463;-50
2021/03/17 10:04:35;;;;;;;8.82;4.63;;;13.90;99.70;;;;;;5075778;28;20454;-50
2021/03/17 10:07:05;;;;;;;9.20;5.13;;;13.70;95.80;;;;;;5092459;28;20460;-50
2021/03/17 10:09:33;;;;;;;9.63;4.88;;;13.20;97.40;;;;;;5092323;28;20454;-49
2021/03/17 10:12:10;;;;;;;10.18;5.60;;;12.60;97.10;;;;;;5092759;28;20380;-51
2021/03/17 10:14:38;;;;;;;11.05;5.68;;;12.40;97.70;;;;;;5091909;28;20401;-55
2021/03/17 10:17:06;;;;;;;10.60;5.15;;;11.70;99.20;;;;;;5093444;28;20848;-49
2021/03/17 10:19:33;;;;;;;7.75;3.92;;;11.00;99.90;;;;;;5093448;28;20977;-49
2021/03/17 10:21:59;;;;;;;8.50;4.00;;;10.60;99.90;;;;;;5091088;28;20855;-49
2021/03/17 10:24:43;;;;;;;8.90;4.20;;;9.90;99.90;;;;;;5092313;28;20472;-51
2021/03/17 10:27:14;;;;;;;6.60;3.30;;;9.70;99.90;;;;;;5093070;28;20401;-50
2021/03/17 10:29:42;;;;;;;8.27;4.00;;;9.90;99.90;;;;;;5091826;28;20401;-54
2021/03/17 10:32:09;;;;;;;7.77;3.80;;;10.20;99.70;;;;;;5091824;28;20394;-49
2021/03/17 10:34:36;;;;;;;9.00;3.60;;;10.10;99.90;;;;;;5093094;28;20484;-49
2021/03/17 10:37:02;;;;;;;7.45;3.50;;;9.70;99.70;;;;;;5093091;28;20871;-49
2021/03/17 10:39:29;;;;;;;8.18;3.30;;;9.90;99.90;;;;;;5091966;28;20908;-49
2021/03/17 10:41:55;;;;;;;6.80;3.00;;;9.80;99.90;;;;;;5092365;28;20393;-49
2021/03/17 10:44:24;;;;;;;7.85;3.60;;;9.80;99.00;;;;;;5092998;28;20839;-49
2021/03/17 10:47:09;;;;;;;6.88;3.28;;;9.90;99.60;;;;;;5091676;28;20729;-50
2021/03/17 10:49:37;;;;;;;7.88;4.30;;;9.50;99.90;;;;;;5093117;28;20386;-49
2021/03/17 10:52:04;;;;;;;9.10;4.85;;;8.80;99.90;;;;;;5074432;28;20727;-50
2021/03/17 10:54:34;;;;;;;10.85;4.38;;;8.30;99.90;;;;;;5092482;28;20487;-49
2021/03/17 10:57:01;;;;;;;8.98;4.10;;;8.10;99.90;;;;;;5092482;28;20397;-49
2021/03/17 10:59:37;;;;;;;8.00;4.00;;;8.00;99.90;;;;;;5092450;28;20473;-49
2021/03/17 11:02:25;;;;;;;8.32;3.90;;;7.90;99.90;;;;;;5092263;28;20378;-49
2021/03/17 11:05:10;;;;;;;10.30;4.45;;;7.90;99.90;;;;;;5071685;28;20379;-51
2021/03/17 11:08:00;;;;;;;9.63;4.07;;;8.00;99.90;;;;;;5071368;28;20396;-50
2021/03/17 11:10:45;;;;;;;8.93;4.20;;;8.30;99.90;;;;;;5071146;28;20383;-49
2021/03/17 11:13:16;;;;;;;9.70;4.82;;;8.30;99.90;;;;;;5070908;28;20777;-48
2021/03/17 11:15:46;;;;;;;8.50;4.72;;;8.30;99.90;;;;;;5069929;28;20405;-49
2021/03/17 11:18:45;;;;;;;8.30;3.83;;;8.30;99.90;;;;;;5071145;28;20384;-49
2021/03/17 11:21:26;;;;;;;10.05;4.28;;;8.20;99.90;;;;;;5071686;28;20391;-49
2021/03/17 11:23:54;;;;;;;8.13;4.10;;;8.20;99.90;;;;;;5070381;28;20380;-48
2021/03/17 11:26:26;;;;;;;8.40;4.13;;;8.00;99.90;;;;;;5071063;28;20434;-48
2021/03/17 11:28:53;;;;;;;8.70;4.40;;;7.50;99.90;;;;;;5070051;28;20983;-49
2021/03/17 11:31:37;;;;;;;9.93;4.90;;;7.30;99.90;;;;;;5070937;28;20387;-48
2021/03/17 11:34:06;;;;;;;11.05;5.55;;;6.80;99.90;;;;;;5070224;28;20388;-48
2021/03/17 11:36:31;;;;;;;13.30;6.50;;;6.30;99.90;;;;;;5070794;28;20895;-49
2021/03/17 11:38:58;;;;;;;14.70;7.53;;;6.00;99.90;;;;;;5069879;28;20391;-48
2021/03/17 11:41:26;;;;;;;16.05;8.48;;;5.60;99.90;;;;;;5070885;28;20371;-48
2021/03/17 11:43:52;;;;;;;16.88;9.10;;;6.70;99.90;;;;;;5070292;28;20440;-48
2021/03/17 11:46:19;;;;;;;19.17;10.13;;;4.60;99.90;;;;;;5070697;28;20565;-49
2021/03/17 11:48:45;;;;;;;18.15;8.55;;;4.80;99.90;;;;;;5069933;28;20376;-49
2021/03/17 11:51:11;;;;;;;19.70;10.45;;;4.60;99.90;;;;;;5070843;28;20471;-48
2021/03/17 11:53:37;;;;;;;18.87;9.83;;;4.60;99.90;;;;;;5070710;28;20479;-48
2021/03/17 11:56:05;;;;;;;19.38;10.40;;;6.80;99.90;;;;;;5070586;28;20391;-48
2021/03/17 11:58:32;;;;;;;19.15;10.10;;;4.70;99.90;;;;;;5070811;28;20433;-49
2021/03/17 12:00:58;;;;;;;23.40;11.95;;;5.00;99.90;;;;;;5069736;28;20790;-48
2021/03/17 12:03:23;;;;;;;17.02;9.48;;;7.10;99.90;;;;;;5079222;28;20896;-51
2021/03/17 12:05:50;;;;;;;16.23;8.20;;;5.00;99.90;;;;;;5041821;28;1353078;-48
2021/03/17 12:08:17;;;;;;;15.80;8.25;;;5.60;99.90;;;;;;5091600;28;20382;-48
2021/03/17 12:10:43;;;;;;;17.98;9.05;;;4.90;99.90;;;;;;5090501;28;20394;-54
2021/03/17 12:13:09;;;;;;;18.52;9.00;;;5.10;99.90;;;;;;5091560;28;20378;-49
2021/03/17 12:15:35;;;;;;;17.80;8.40;;;5.00;99.90;;;;;;5091146;28;20393;-48
2021/03/17 12:18:01;;;;;;;17.23;8.40;;;5.90;99.90;;;;;;5090441;28;20370;-49
2021/03/17 12:20:28;;;;;;;16.88;8.23;;;4.90;99.90;;;;;;5091408;28;20386;-49
2021/03/17 12:22:55;;;;;;;17.75;8.48;;;4.90;99.90;;;;;;5090688;28;21157;-49
2021/03/17 12:25:21;;;;;;;16.13;7.32;;;7.00;99.90;;;;;;5090730;28;20406;-50
2021/03/17 12:27:46;;;;;;;14.35;7.43;;;4.80;99.90;;;;;;5090170;28;20386;-49
2021/03/17 12:30:15;;;;;;;13.68;7.40;;;4.80;99.90;;;;;;5072622;28;20405;-49
2021/03/17 12:32:41;;;;;;;13.15;7.47;;;5.00;99.90;;;;;;5090065;28;20397;-53
2021/03/17 12:35:09;;;;;;;14.07;7.93;;;4.90;99.90;;;;;;5091699;28;20370;-48
2021/03/17 12:37:36;;;;;;;14.10;7.60;;;5.00;99.90;;;;;;5091203;28;20431;-48
2021/03/17 12:40:03;;;;;;;20.27;9.85;;;5.00;99.90;;;;;;5089200;28;20393;-49
2021/03/17 12:42:29;;;;;;;17.98;9.15;;;5.10;99.90;;;;;;5090978;28;20396;-48
2021/03/17 12:44:55;;;;;;;16.38;8.18;;;5.30;99.90;;;;;;5089004;28;20394;-52
2021/03/17 12:47:20;;;;;;;13.63;7.60;;;5.40;99.90;;;;;;5079957;28;20416;-49
2021/03/17 12:49:46;;;;;;;20.13;11.20;;;5.40;99.90;;;;;;5089154;28;20390;-49
2021/03/17 12:52:12;;;;;;;17.23;9.10;;;7.70;99.90;;;;;;5089859;28;20390;-49
2021/03/17 12:54:37;;;;;;;15.20;7.90;;;5.60;99.90;;;;;;5089684;28;20867;-49
2021/03/17 12:57:04;;;;;;;18.48;9.88;;;5.80;99.90;;;;;;5089086;28;20705;-48
2021/03/17 12:59:30;;;;;;;15.43;8.60;;;5.70;99.90;;;;;;5089491;28;20426;-49
2021/03/17 13:01:56;;;;;;;18.33;8.70;;;5.70;99.90;;;;;;5089235;28;20385;-50
2021/03/17 13:04:21;;;;;;;15.17;8.53;;;5.60;99.90;;;;;;5083674;28;20406;-48